createdAt,value
2016-07-22T00:00:52.538Z,0
2016-07-22T00:04:06.398Z,0
2016-07-22T00:07:26.225Z,0
2016-07-22T00:10:29.415Z,0
2016-07-22T00:13:43.467Z,0
2016-07-22T00:16:57.094Z,0
2016-07-22T00:20:11.022Z,0
2016-07-22T00:23:31.192Z,0
2016-07-22T00:26:35.017Z,0
2016-07-22T00:29:47.727Z,0
2016-07-22T00:33:00.460Z,0
2016-07-22T00:36:14.295Z,0
2016-07-22T00:39:34.050Z,0
2016-07-22T00:42:37.168Z,0
2016-07-22T00:45:51.316Z,0
2016-07-22T00:49:00.655Z,0
2016-07-22T00:52:13.303Z,0
2016-07-22T00:55:33.185Z,0
2016-07-22T00:58:36.467Z,0
2016-07-22T01:01:49.945Z,0
2016-07-22T01:05:03.669Z,0
2016-07-22T01:08:17.400Z,0
2016-07-22T01:11:37.209Z,0
2016-07-22T01:14:40.284Z,0
2016-07-22T01:17:54.141Z,0
2016-07-22T01:21:08.036Z,0
2016-07-22T01:24:28.191Z,0
2016-07-22T01:27:37.301Z,0
2016-07-22T01:30:40.354Z,0
2016-07-22T01:33:54.138Z,0
2016-07-22T01:37:07.985Z,0
2016-07-22T01:40:27.870Z,0
2016-07-22T01:43:37.045Z,0
2016-07-22T01:46:40.125Z,0
2016-07-22T01:49:54.200Z,0
2016-07-22T01:53:08.154Z,0
2016-07-22T01:56:27.970Z,0
2016-07-22T01:59:36.928Z,0
2016-07-22T02:02:40.042Z,0
2016-07-22T02:05:53.726Z,0
2016-07-22T02:09:07.370Z,0
2016-07-22T02:12:21.082Z,0
2016-07-22T02:15:34.782Z,0
2016-07-22T02:18:48.291Z,0
2016-07-22T02:22:02.276Z,0
2016-07-22T02:25:16.126Z,0
2016-07-22T02:28:35.720Z,0
2016-07-22T02:31:38.784Z,1
2016-07-22T02:34:52.566Z,0
2016-07-22T02:38:06.368Z,1
2016-07-22T02:41:20.400Z,2
2016-07-22T02:44:33.897Z,2
2016-07-22T02:47:47.731Z,3
2016-07-22T02:51:01.403Z,6
2016-07-22T02:54:15.068Z,9
2016-07-22T02:57:34.911Z,12
2016-07-22T03:00:38.032Z,15
2016-07-22T03:03:51.608Z,21
2016-07-22T03:07:05.598Z,28
2016-07-22T03:10:19.111Z,36
2016-07-22T03:13:33.012Z,47
2016-07-22T03:16:46.610Z,58
2016-07-22T03:20:00.220Z,71
2016-07-22T03:23:14.047Z,87
2016-07-22T03:26:33.957Z,103
2016-07-22T03:29:36.922Z,120
2016-07-22T03:32:50.662Z,140
2016-07-22T03:36:04.417Z,161
2016-07-22T03:39:17.947Z,184
2016-07-22T03:42:31.802Z,207
2016-07-22T03:45:45.232Z,231
2016-07-22T03:48:59.201Z,257
2016-07-22T03:52:12.676Z,279
2016-07-22T03:55:32.403Z,306
2016-07-22T03:58:35.488Z,332
2016-07-22T04:01:49.228Z,367
2016-07-22T04:05:03.014Z,397
2016-07-22T04:08:16.884Z,430
2016-07-22T04:11:36.616Z,459
2016-07-22T04:14:39.581Z,488
2016-07-22T04:17:52.918Z,512
2016-07-22T04:21:06.742Z,543
2016-07-22T04:24:20.393Z,574
2016-07-22T04:27:34.027Z,604
2016-07-22T04:30:47.668Z,630
2016-07-22T04:34:01.419Z,660
2016-07-22T04:37:14.882Z,685
2016-07-22T04:40:34.675Z,717
2016-07-22T04:43:37.607Z,741
2016-07-22T04:46:51.322Z,753
2016-07-22T04:50:05.115Z,780
2016-07-22T04:53:18.798Z,795
2016-07-22T04:56:32.353Z,789
2016-07-22T04:59:44.225Z,779
2016-07-22T05:02:57.813Z,765
2016-07-22T05:06:11.692Z,700
2016-07-22T05:09:31.211Z,747
2016-07-22T05:12:34.245Z,886
2016-07-22T05:15:48.083Z,935
2016-07-22T05:19:01.750Z,978
2016-07-22T05:22:15.660Z,1002
2016-07-22T05:25:35.744Z,1029
2016-07-22T05:28:39.113Z,1054
2016-07-22T05:31:52.886Z,1098
2016-07-22T05:35:06.895Z,1134
2016-07-22T05:38:20.903Z,1173
2016-07-22T05:41:34.737Z,1222
2016-07-22T05:44:48.681Z,1270
2016-07-22T05:48:02.541Z,1284
2016-07-22T05:51:15.955Z,1331
2016-07-22T05:54:35.639Z,1367
2016-07-22T05:57:38.811Z,1448
2016-07-22T06:00:52.596Z,1456
2016-07-22T06:04:06.612Z,1543
2016-07-22T06:07:20.487Z,1580
2016-07-22T06:10:34.153Z,1645
2016-07-22T06:13:48.428Z,1692
2016-07-22T06:17:02.369Z,1761
2016-07-22T06:20:14.288Z,1810
2016-07-22T06:23:31.649Z,1873
2016-07-22T06:26:34.977Z,1943
2016-07-22T06:29:49.298Z,1993
2016-07-22T06:33:03.480Z,2080
2016-07-22T06:36:15.965Z,2152
2016-07-22T06:39:36.369Z,2174
2016-07-22T06:42:40.010Z,2320
2016-07-22T06:45:54.099Z,2448
2016-07-22T06:49:08.502Z,2616
2016-07-22T06:52:28.625Z,3340
2016-07-22T06:55:32.467Z,4158
2016-07-22T06:58:47.022Z,517
2016-07-22T07:02:01.580Z,414
2016-07-22T07:05:16.378Z,5109
2016-07-22T07:08:37.180Z,449
2016-07-22T07:11:41.317Z,384
2016-07-22T07:14:56.122Z,116
2016-07-22T07:18:10.487Z,117
2016-07-22T07:21:30.824Z,122
2016-07-22T07:24:34.305Z,128
2016-07-22T07:27:48.611Z,131
2016-07-22T07:31:02.939Z,135
2016-07-22T07:34:17.274Z,130
2016-07-22T07:37:37.740Z,141
2016-07-22T07:40:41.333Z,150
2016-07-22T07:43:55.653Z,157
2016-07-22T07:47:09.852Z,167
2016-07-22T07:50:21.766Z,176
2016-07-22T07:53:36.015Z,185
2016-07-22T07:56:50.272Z,196
2016-07-22T08:00:04.303Z,192
2016-07-22T08:03:18.619Z,173
2016-07-22T08:06:33.133Z,169
2016-07-22T08:09:47.563Z,172
2016-07-22T08:13:01.834Z,196
2016-07-22T08:16:16.304Z,178
2016-07-22T08:19:36.966Z,213
2016-07-22T08:22:40.612Z,188
2016-07-22T08:25:54.781Z,212
2016-07-22T08:29:09.104Z,161
2016-07-22T08:32:29.327Z,213
2016-07-22T08:35:33.034Z,185
2016-07-22T08:38:47.315Z,230
2016-07-22T08:42:01.474Z,183
2016-07-22T08:45:14.171Z,217
2016-07-22T08:48:34.564Z,155
2016-07-22T08:51:38.330Z,192
2016-07-22T08:54:52.936Z,145
2016-07-22T08:58:07.289Z,98
2016-07-22T09:01:21.400Z,82
2016-07-22T09:04:35.465Z,87
2016-07-22T09:07:49.964Z,100
2016-07-22T09:11:04.280Z,91
2016-07-22T09:14:18.765Z,101
2016-07-22T09:17:33.118Z,117
2016-07-22T09:20:47.560Z,177
2016-07-22T09:24:01.827Z,89
2016-07-22T09:27:16.269Z,36
2016-07-22T09:30:36.641Z,129
2016-07-22T09:33:40.357Z,68
2016-07-22T09:36:54.704Z,72
2016-07-22T09:40:09.200Z,79
2016-07-22T09:43:29.470Z,79
2016-07-22T09:46:33.145Z,81
2016-07-22T09:49:47.328Z,95
2016-07-22T09:53:01.840Z,79
2016-07-22T09:56:16.191Z,84
2016-07-22T09:59:36.690Z,105
2016-07-22T10:02:40.408Z,103
2016-07-22T10:05:54.759Z,94
2016-07-22T10:09:09.192Z,113
2016-07-22T10:12:29.410Z,98
2016-07-22T10:15:39.022Z,96
2016-07-22T10:18:42.630Z,185
2016-07-22T10:21:57.087Z,101
2016-07-22T10:25:11.266Z,116
2016-07-22T10:28:31.735Z,108
2016-07-22T10:31:35.341Z,112
2016-07-22T10:34:49.694Z,108
2016-07-22T10:38:04.067Z,130
2016-07-22T10:41:18.469Z,113
2016-07-22T10:44:38.047Z,210
2016-07-22T10:47:41.870Z,175
2016-07-22T10:50:56.383Z,108
2016-07-22T10:54:11.245Z,104
2016-07-22T10:57:32.200Z,137
2016-07-22T11:00:36.151Z,185
2016-07-22T11:03:50.509Z,1141
2016-07-22T11:07:05.136Z,394
2016-07-22T11:10:19.735Z,233
2016-07-22T11:13:34.146Z,134
2016-07-22T11:16:48.540Z,109
2016-07-22T11:20:02.667Z,89
2016-07-22T11:23:16.863Z,53
2016-07-22T11:26:37.514Z,27
2016-07-22T11:29:41.053Z,25
2016-07-22T11:32:55.428Z,28
2016-07-22T11:36:09.681Z,26
2016-07-22T11:39:22.357Z,24
2016-07-22T11:42:36.906Z,23
2016-07-22T11:45:51.103Z,21
2016-07-22T11:49:05.599Z,20
2016-07-22T11:52:19.843Z,20
2016-07-22T11:55:34.309Z,21
2016-07-22T11:58:48.724Z,21
2016-07-22T12:02:03.111Z,19
2016-07-22T12:05:17.402Z,19
2016-07-22T12:08:37.895Z,16
2016-07-22T12:11:41.576Z,15
2016-07-22T12:14:56.038Z,16
2016-07-22T12:18:10.476Z,15
2016-07-22T12:21:30.554Z,14
2016-07-22T12:24:34.185Z,15
2016-07-22T12:27:48.577Z,13
2016-07-22T12:31:02.599Z,15
2016-07-22T12:34:15.031Z,15
2016-07-22T12:37:35.423Z,15
2016-07-22T12:40:39.033Z,17
2016-07-22T12:43:53.509Z,15
2016-07-22T12:47:07.731Z,15
2016-07-22T12:50:21.945Z,14
2016-07-22T12:53:36.163Z,14
2016-07-22T12:56:50.282Z,14
2016-07-22T13:00:04.675Z,15
2016-07-22T13:03:18.680Z,14
2016-07-22T13:06:38.816Z,13
2016-07-22T13:09:42.462Z,13
2016-07-22T13:12:54.075Z,13
2016-07-22T13:16:08.438Z,13
2016-07-22T13:19:22.723Z,14
2016-07-22T13:22:37.020Z,14
2016-07-22T13:25:50.692Z,13
2016-07-22T13:29:02.838Z,12
2016-07-22T13:32:17.020Z,11
2016-07-22T13:35:37.379Z,12
2016-07-22T13:38:41.087Z,13
2016-07-22T13:41:55.274Z,15
2016-07-22T13:45:09.655Z,13
2016-07-22T13:48:23.934Z,12
2016-07-22T13:51:38.335Z,12
2016-07-22T13:54:52.708Z,13
2016-07-22T13:58:07.170Z,12
2016-07-22T14:01:21.390Z,12
2016-07-22T14:04:35.682Z,12
2016-07-22T14:07:50.138Z,11
2016-07-22T18:08:35.764Z,499
2016-07-22T18:11:51.662Z,515
2016-07-22T18:14:55.216Z,590
2016-07-22T18:18:09.010Z,643
2016-07-22T18:21:23.275Z,575
2016-07-22T18:24:37.556Z,411
2016-07-22T18:27:51.673Z,307
2016-07-22T18:31:05.989Z,253
2016-07-22T18:34:19.815Z,220
2016-07-22T18:37:33.998Z,199
2016-07-22T18:40:54.235Z,176
2016-07-22T18:43:57.794Z,156
2016-07-22T18:47:12.112Z,137
2016-07-22T18:50:26.370Z,120
2016-07-22T18:53:46.750Z,105
2016-07-22T18:56:50.161Z,92
2016-07-22T19:00:04.336Z,82
2016-07-22T19:03:18.315Z,71
2016-07-22T19:06:32.278Z,61
2016-07-22T19:09:52.059Z,52
2016-07-22T19:12:55.334Z,43
2016-07-22T19:16:09.353Z,35
2016-07-22T19:19:23.300Z,40
2016-07-22T19:22:36.731Z,30
2016-07-22T19:25:50.735Z,22
2016-07-22T19:29:03.966Z,15
2016-07-22T19:32:20.043Z,11
2016-07-22T19:35:31.471Z,7
2016-07-22T19:38:51.441Z,5
2016-07-22T19:41:54.475Z,3
2016-07-22T19:45:08.047Z,2
2016-07-22T19:48:21.991Z,2
2016-07-22T19:51:35.851Z,1
2016-07-22T19:54:50.428Z,1
2016-07-22T19:58:03.443Z,0
2016-07-22T20:01:17.379Z,0
2016-07-22T20:04:31.364Z,0
2016-07-22T20:07:51.370Z,0
2016-07-22T20:10:54.497Z,0
2016-07-22T20:14:08.382Z,0
2016-07-22T20:17:22.116Z,0
2016-07-22T20:20:35.790Z,0
2016-07-22T20:23:49.579Z,0
2016-07-22T20:27:01.206Z,0
2016-07-22T20:30:15.204Z,0
2016-07-22T20:33:26.943Z,0
2016-07-22T20:36:46.986Z,0
2016-07-22T20:39:50.135Z,0
2016-07-22T20:43:03.777Z,0
2016-07-22T20:46:17.217Z,0
2016-07-22T20:49:31.143Z,0
2016-07-22T20:52:50.823Z,0
2016-07-22T20:55:53.932Z,0
2016-07-22T20:59:07.866Z,0
2016-07-22T21:02:21.821Z,0
2016-07-22T21:05:35.647Z,0
2016-07-22T21:08:49.650Z,0
2016-07-22T21:12:03.552Z,0
2016-07-22T21:15:17.606Z,0
2016-07-22T21:18:31.578Z,0
2016-07-22T21:21:51.282Z,0
2016-07-22T21:24:54.413Z,0
2016-07-22T21:28:08.439Z,0
2016-07-22T21:31:22.189Z,0
2016-07-22T21:34:35.850Z,0
2016-07-22T21:37:49.681Z,0
2016-07-22T21:41:03.315Z,0
2016-07-22T21:44:17.112Z,0
2016-07-22T21:47:31.032Z,0
2016-07-22T21:50:50.802Z,0
2016-07-22T21:53:53.808Z,0
2016-07-22T21:57:07.646Z,0
2016-07-22T22:00:21.672Z,0
2016-07-22T22:03:35.267Z,0
2016-07-22T22:06:54.802Z,0
2016-07-22T22:09:57.904Z,0
2016-07-22T22:13:11.651Z,0
2016-07-22T22:16:25.549Z,0
2016-07-22T22:19:39.287Z,0
2016-07-22T22:22:52.947Z,0
2016-07-22T22:26:06.616Z,0
2016-07-22T22:29:20.210Z,0
2016-07-22T22:32:34.007Z,0
2016-07-22T22:35:54.074Z,0
2016-07-22T22:38:57.055Z,0
2016-07-22T22:42:10.926Z,0
2016-07-22T22:45:24.575Z,0
2016-07-22T22:48:38.145Z,0
2016-07-22T22:51:51.634Z,0
2016-07-22T22:55:05.086Z,0
2016-07-22T22:58:18.848Z,0
2016-07-22T23:01:29.874Z,0
2016-07-22T23:04:46.906Z,0
2016-07-22T23:07:50.134Z,0
2016-07-22T23:11:02.956Z,0
2016-07-22T23:14:16.738Z,0
2016-07-22T23:17:29.953Z,0
2016-07-22T23:20:49.405Z,0
2016-07-22T23:23:52.194Z,0
2016-07-22T23:27:05.825Z,0
2016-07-22T23:30:19.327Z,0
2016-07-22T23:33:32.954Z,0
2016-07-22T23:36:52.878Z,0
2016-07-22T23:39:55.707Z,0
2016-07-22T23:43:09.261Z,0
2016-07-22T23:46:21.900Z,0
2016-07-22T23:49:35.608Z,0
2016-07-22T23:52:55.175Z,0
2016-07-22T23:55:58.095Z,0
2016-07-22T23:59:09.747Z,0
